sensor_id;sensor_type;location;lat;lon;timestamp;P1;durP1;ratioP1;P2;durP2;ratioP2
79145;SDS011;68792;53.338;-1.502;2023-04-08T00:02:25;3.75;;;1.95;;
79145;SDS011;68792;53.338;-1.502;2023-04-08T00:04:50;3.60;;;1.95;;
79145;SDS011;68792;53.338;-1.502;2023-04-08T00:07:16;3.13;;;1.80;;
79145;SDS011;68792;53.338;-1.502;2023-04-08T00:09:41;3.15;;;2.42;;
79145;SDS011;68792;53.338;-1.502;2023-04-08T00:12:07;3.20;;;1.95;;
79145;SDS011;68792;53.338;-1.502;2023-04-08T00:14:32;3.10;;;1.88;;
79145;SDS011;68792;53.338;-1.502;2023-04-08T00:16:57;2.40;;;1.60;;
79145;SDS011;68792;53.338;-1.502;2023-04-08T00:19:23;3.17;;;2.13;;
79145;SDS011;68792;53.338;-1.502;2023-04-08T00:21:49;5.55;;;2.03;;
79145;SDS011;68792;53.338;-1.502;2023-04-08T00:24:15;2.95;;;1.85;;
79145;SDS011;68792;53.338;-1.502;2023-04-08T00:26:41;3.70;;;1.95;;
79145;SDS011;68792;53.338;-1.502;2023-04-08T00:29:06;3.50;;;1.85;;
79145;SDS011;68792;53.338;-1.502;2023-04-08T00:31:32;4.10;;;1.98;;
79145;SDS011;68792;53.338;-1.502;2023-04-08T00:33:57;4.15;;;2.13;;
79145;SDS011;68792;53.338;-1.502;2023-04-08T00:36:23;5.05;;;1.85;;
79145;SDS011;68792;53.338;-1.502;2023-04-08T00:38:48;3.13;;;1.73;;
79145;SDS011;68792;53.338;-1.502;2023-04-08T00:41:14;4.00;;;2.13;;
79145;SDS011;68792;53.338;-1.502;2023-04-08T00:43:39;3.70;;;1.85;;
79145;SDS011;68792;53.338;-1.502;2023-04-08T00:46:05;3.35;;;2.08;;
79145;SDS011;68792;53.338;-1.502;2023-04-08T00:48:30;2.55;;;1.60;;
79145;SDS011;68792;53.338;-1.502;2023-04-08T00:50:56;4.25;;;2.20;;
79145;SDS011;68792;53.338;-1.502;2023-04-08T00:53:22;3.47;;;1.67;;
79145;SDS011;68792;53.338;-1.502;2023-04-08T00:55:48;2.30;;;1.40;;
79145;SDS011;68792;53.338;-1.502;2023-04-08T00:58:13;2.60;;;1.73;;
79145;SDS011;68792;53.338;-1.502;2023-04-08T01:00:39;2.70;;;1.83;;
79145;SDS011;68792;53.338;-1.502;2023-04-08T01:03:17;3.85;;;1.88;;
79145;SDS011;68792;53.338;-1.502;2023-04-08T01:08:39;2.95;;;1.52;;
79145;SDS011;68792;53.338;-1.502;2023-04-08T01:11:07;1.92;;;1.40;;
79145;SDS011;68792;53.338;-1.502;2023-04-08T01:13:36;3.08;;;1.55;;
79145;SDS011;68792;53.338;-1.502;2023-04-08T01:16:04;2.47;;;1.58;;
79145;SDS011;68792;53.338;-1.502;2023-04-08T01:18:30;2.85;;;1.95;;
79145;SDS011;68792;53.338;-1.502;2023-04-08T01:20:58;2.72;;;1.48;;
79145;SDS011;68792;53.338;-1.502;2023-04-08T01:26:11;3.83;;;1.63;;
79145;SDS011;68792;53.338;-1.502;2023-04-08T01:28:37;2.45;;;1.65;;
79145;SDS011;68792;53.338;-1.502;2023-04-08T01:31:03;3.75;;;1.45;;
79145;SDS011;68792;53.338;-1.502;2023-04-08T01:33:29;2.15;;;1.50;;
79145;SDS011;68792;53.338;-1.502;2023-04-08T01:35:55;3.33;;;1.73;;
79145;SDS011;68792;53.338;-1.502;2023-04-08T01:38:22;3.25;;;1.65;;
79145;SDS011;68792;53.338;-1.502;2023-04-08T01:40:49;3.05;;;1.50;;
79145;SDS011;68792;53.338;-1.502;2023-04-08T01:43:16;3.30;;;1.80;;
79145;SDS011;68792;53.338;-1.502;2023-04-08T01:45:42;4.13;;;1.90;;
79145;SDS011;68792;53.338;-1.502;2023-04-08T01:48:08;2.47;;;1.60;;
79145;SDS011;68792;53.338;-1.502;2023-04-08T01:50:34;1.67;;;1.20;;
79145;SDS011;68792;53.338;-1.502;2023-04-08T01:53:00;2.78;;;1.52;;
79145;SDS011;68792;53.338;-1.502;2023-04-08T01:57:52;2.88;;;1.63;;
79145;SDS011;68792;53.338;-1.502;2023-04-08T02:02:44;2.28;;;1.42;;
79145;SDS011;68792;53.338;-1.502;2023-04-08T02:05:11;2.60;;;1.48;;
79145;SDS011;68792;53.338;-1.502;2023-04-08T02:07:36;2.53;;;1.17;;
79145;SDS011;68792;53.338;-1.502;2023-04-08T02:10:02;1.88;;;1.30;;
79145;SDS011;68792;53.338;-1.502;2023-04-08T02:12:28;3.50;;;1.52;;
79145;SDS011;68792;53.338;-1.502;2023-04-08T02:14:53;3.92;;;2.03;;
79145;SDS011;68792;53.338;-1.502;2023-04-08T02:17:32;5.47;;;1.52;;
79145;SDS011;68792;53.338;-1.502;2023-04-08T02:20:33;2.20;;;1.30;;
79145;SDS011;68792;53.338;-1.502;2023-04-08T02:23:09;2.30;;;1.00;;
79145;SDS011;68792;53.338;-1.502;2023-04-08T02:25:39;2.97;;;1.25;;
79145;SDS011;68792;53.338;-1.502;2023-04-08T02:28:06;2.45;;;1.45;;
79145;SDS011;68792;53.338;-1.502;2023-04-08T02:30:34;2.42;;;1.27;;
79145;SDS011;68792;53.338;-1.502;2023-04-08T02:33:04;2.25;;;1.17;;
79145;SDS011;68792;53.338;-1.502;2023-04-08T02:35:30;2.45;;;1.40;;
79145;SDS011;68792;53.338;-1.502;2023-04-08T02:37:56;2.58;;;1.65;;
79145;SDS011;68792;53.338;-1.502;2023-04-08T02:40:25;2.40;;;1.30;;
79145;SDS011;68792;53.338;-1.502;2023-04-08T02:42:52;2.03;;;1.50;;
79145;SDS011;68792;53.338;-1.502;2023-04-08T02:45:17;1.83;;;1.23;;
79145;SDS011;68792;53.338;-1.502;2023-04-08T02:47:43;2.25;;;1.45;;
79145;SDS011;68792;53.338;-1.502;2023-04-08T02:50:08;3.38;;;1.50;;
79145;SDS011;68792;53.338;-1.502;2023-04-08T02:52:34;3.47;;;1.30;;
79145;SDS011;68792;53.338;-1.502;2023-04-08T02:55:00;2.10;;;1.42;;
79145;SDS011;68792;53.338;-1.502;2023-04-08T02:57:26;2.33;;;1.45;;
79145;SDS011;68792;53.338;-1.502;2023-04-08T02:59:51;2.97;;;1.38;;
79145;SDS011;68792;53.338;-1.502;2023-04-08T03:02:17;1.45;;;1.05;;
79145;SDS011;68792;53.338;-1.502;2023-04-08T03:04:42;1.65;;;1.08;;
79145;SDS011;68792;53.338;-1.502;2023-04-08T03:07:08;2.45;;;1.50;;
79145;SDS011;68792;53.338;-1.502;2023-04-08T03:09:33;3.22;;;1.27;;
79145;SDS011;68792;53.338;-1.502;2023-04-08T03:11:59;1.80;;;1.10;;
79145;SDS011;68792;53.338;-1.502;2023-04-08T03:14:24;2.08;;;1.10;;
79145;SDS011;68792;53.338;-1.502;2023-04-08T03:16:50;2.30;;;1.30;;
79145;SDS011;68792;53.338;-1.502;2023-04-08T03:19:15;1.52;;;1.13;;
79145;SDS011;68792;53.338;-1.502;2023-04-08T03:21:40;3.30;;;1.02;;
79145;SDS011;68792;53.338;-1.502;2023-04-08T03:24:06;2.08;;;1.05;;
79145;SDS011;68792;53.338;-1.502;2023-04-08T03:26:31;1.80;;;1.10;;
79145;SDS011;68792;53.338;-1.502;2023-04-08T03:28:57;1.80;;;1.00;;
79145;SDS011;68792;53.338;-1.502;2023-04-08T03:31:22;1.67;;;1.23;;
79145;SDS011;68792;53.338;-1.502;2023-04-08T03:33:47;2.05;;;1.10;;
79145;SDS011;68792;53.338;-1.502;2023-04-08T03:36:13;1.83;;;0.98;;
79145;SDS011;68792;53.338;-1.502;2023-04-08T03:38:38;3.28;;;1.02;;
79145;SDS011;68792;53.338;-1.502;2023-04-08T03:41:04;1.75;;;1.05;;
79145;SDS011;68792;53.338;-1.502;2023-04-08T03:43:30;2.13;;;1.10;;
79145;SDS011;68792;53.338;-1.502;2023-04-08T03:45:55;1.58;;;0.80;;
79145;SDS011;68792;53.338;-1.502;2023-04-08T03:48:21;2.10;;;1.23;;
79145;SDS011;68792;53.338;-1.502;2023-04-08T03:50:46;2.35;;;1.20;;
79145;SDS011;68792;53.338;-1.502;2023-04-08T03:53:12;1.98;;;1.20;;
79145;SDS011;68792;53.338;-1.502;2023-04-08T03:55:37;1.60;;;0.80;;
79145;SDS011;68792;53.338;-1.502;2023-04-08T03:58:03;2.80;;;1.00;;
79145;SDS011;68792;53.338;-1.502;2023-04-08T04:00:29;1.27;;;0.88;;
79145;SDS011;68792;53.338;-1.502;2023-04-08T04:02:54;1.70;;;1.25;;
79145;SDS011;68792;53.338;-1.502;2023-04-08T04:05:20;1.92;;;1.38;;
79145;SDS011;68792;53.338;-1.502;2023-04-08T04:07:45;2.45;;;1.00;;
79145;SDS011;68792;53.338;-1.502;2023-04-08T04:10:11;1.40;;;0.90;;
79145;SDS011;68792;53.338;-1.502;2023-04-08T04:12:36;2.67;;;0.90;;
79145;SDS011;68792;53.338;-1.502;2023-04-08T04:15:02;1.13;;;0.65;;
79145;SDS011;68792;53.338;-1.502;2023-04-08T04:17:28;1.63;;;0.93;;
79145;SDS011;68792;53.338;-1.502;2023-04-08T04:19:53;1.90;;;1.33;;
79145;SDS011;68792;53.338;-1.502;2023-04-08T04:22:19;2.63;;;1.35;;
79145;SDS011;68792;53.338;-1.502;2023-04-08T04:24:47;1.65;;;1.10;;
79145;SDS011;68792;53.338;-1.502;2023-04-08T04:27:13;1.98;;;1.10;;
79145;SDS011;68792;53.338;-1.502;2023-04-08T04:29:41;1.88;;;0.82;;
79145;SDS011;68792;53.338;-1.502;2023-04-08T04:32:06;1.50;;;1.00;;
79145;SDS011;68792;53.338;-1.502;2023-04-08T04:34:32;1.70;;;0.95;;
79145;SDS011;68792;53.338;-1.502;2023-04-08T04:36:58;3.03;;;1.48;;
79145;SDS011;68792;53.338;-1.502;2023-04-08T04:39:23;0.93;;;0.82;;
79145;SDS011;68792;53.338;-1.502;2023-04-08T04:41:48;1.50;;;0.88;;
79145;SDS011;68792;53.338;-1.502;2023-04-08T04:44:14;1.48;;;0.85;;
79145;SDS011;68792;53.338;-1.502;2023-04-08T04:46:40;2.50;;;1.20;;
79145;SDS011;68792;53.338;-1.502;2023-04-08T04:49:05;2.00;;;1.05;;
79145;SDS011;68792;53.338;-1.502;2023-04-08T04:51:31;1.60;;;1.00;;
79145;SDS011;68792;53.338;-1.502;2023-04-08T04:53:57;2.42;;;0.98;;
79145;SDS011;68792;53.338;-1.502;2023-04-08T04:56:22;2.13;;;0.98;;
79145;SDS011;68792;53.338;-1.502;2023-04-08T04:58:49;2.53;;;1.20;;
79145;SDS011;68792;53.338;-1.502;2023-04-08T05:01:14;2.05;;;1.00;;
79145;SDS011;68792;53.338;-1.502;2023-04-08T05:03:40;2.95;;;1.10;;
79145;SDS011;68792;53.338;-1.502;2023-04-08T05:06:05;2.20;;;0.93;;
79145;SDS011;68792;53.338;-1.502;2023-04-08T05:08:31;2.85;;;1.35;;
79145;SDS011;68792;53.338;-1.502;2023-04-08T05:10:56;2.28;;;1.10;;
79145;SDS011;68792;53.338;-1.502;2023-04-08T05:13:23;1.63;;;0.82;;
79145;SDS011;68792;53.338;-1.502;2023-04-08T05:15:48;1.98;;;0.95;;
79145;SDS011;68792;53.338;-1.502;2023-04-08T05:18:14;2.00;;;1.15;;
79145;SDS011;68792;53.338;-1.502;2023-04-08T05:20:40;2.33;;;0.95;;
79145;SDS011;68792;53.338;-1.502;2023-04-08T05:23:05;2.05;;;1.02;;
79145;SDS011;68792;53.338;-1.502;2023-04-08T05:25:31;1.50;;;0.82;;
79145;SDS011;68792;53.338;-1.502;2023-04-08T05:27:57;1.83;;;0.80;;
79145;SDS011;68792;53.338;-1.502;2023-04-08T05:30:22;2.03;;;1.08;;
79145;SDS011;68792;53.338;-1.502;2023-04-08T05:32:48;2.08;;;1.13;;
79145;SDS011;68792;53.338;-1.502;2023-04-08T05:35:13;1.38;;;0.63;;
79145;SDS011;68792;53.338;-1.502;2023-04-08T05:37:38;2.13;;;0.93;;
79145;SDS011;68792;53.338;-1.502;2023-04-08T05:40:04;1.58;;;0.73;;
79145;SDS011;68792;53.338;-1.502;2023-04-08T05:42:30;2.42;;;0.90;;
79145;SDS011;68792;53.338;-1.502;2023-04-08T05:44:56;2.15;;;1.00;;
79145;SDS011;68792;53.338;-1.502;2023-04-08T05:47:22;2.05;;;0.88;;
79145;SDS011;68792;53.338;-1.502;2023-04-08T05:49:47;2.30;;;1.00;;
79145;SDS011;68792;53.338;-1.502;2023-04-08T05:52:12;1.25;;;0.77;;
79145;SDS011;68792;53.338;-1.502;2023-04-08T05:54:41;2.25;;;0.70;;
79145;SDS011;68792;53.338;-1.502;2023-04-08T05:57:07;2.42;;;1.00;;
79145;SDS011;68792;53.338;-1.502;2023-04-08T05:59:33;2.38;;;0.82;;
79145;SDS011;68792;53.338;-1.502;2023-04-08T06:01:58;1.70;;;0.80;;
79145;SDS011;68792;53.338;-1.502;2023-04-08T06:04:23;1.83;;;0.88;;
79145;SDS011;68792;53.338;-1.502;2023-04-08T06:06:49;3.30;;;1.17;;
79145;SDS011;68792;53.338;-1.502;2023-04-08T06:09:14;2.47;;;1.02;;
79145;SDS011;68792;53.338;-1.502;2023-04-08T06:11:40;2.40;;;0.88;;
79145;SDS011;68792;53.338;-1.502;2023-04-08T06:14:05;1.58;;;0.80;;
79145;SDS011;68792;53.338;-1.502;2023-04-08T06:16:31;3.58;;;1.10;;
79145;SDS011;68792;53.338;-1.502;2023-04-08T06:18:56;1.48;;;0.82;;
79145;SDS011;68792;53.338;-1.502;2023-04-08T06:21:21;3.08;;;1.17;;
79145;SDS011;68792;53.338;-1.502;2023-04-08T06:23:47;2.25;;;0.80;;
79145;SDS011;68792;53.338;-1.502;2023-04-08T06:26:12;2.30;;;0.82;;
79145;SDS011;68792;53.338;-1.502;2023-04-08T06:28:38;1.92;;;1.02;;
79145;SDS011;68792;53.338;-1.502;2023-04-08T06:31:03;1.63;;;0.88;;
79145;SDS011;68792;53.338;-1.502;2023-04-08T06:33:28;1.77;;;0.90;;
79145;SDS011;68792;53.338;-1.502;2023-04-08T06:36:01;1.27;;;0.75;;
79145;SDS011;68792;53.338;-1.502;2023-04-08T06:38:27;1.58;;;0.85;;
79145;SDS011;68792;53.338;-1.502;2023-04-08T06:40:53;1.83;;;0.90;;
79145;SDS011;68792;53.338;-1.502;2023-04-08T06:43:18;2.20;;;0.88;;
79145;SDS011;68792;53.338;-1.502;2023-04-08T06:45:44;2.28;;;0.88;;
79145;SDS011;68792;53.338;-1.502;2023-04-08T06:48:10;2.42;;;1.20;;
79145;SDS011;68792;53.338;-1.502;2023-04-08T06:50:36;2.40;;;1.13;;
79145;SDS011;68792;53.338;-1.502;2023-04-08T06:53:01;1.85;;;0.75;;
79145;SDS011;68792;53.338;-1.502;2023-04-08T06:55:27;1.95;;;0.98;;
79145;SDS011;68792;53.338;-1.502;2023-04-08T06:57:52;3.33;;;1.02;;
79145;SDS011;68792;53.338;-1.502;2023-04-08T07:00:18;2.05;;;0.98;;
79145;SDS011;68792;53.338;-1.502;2023-04-08T07:02:43;2.53;;;0.93;;
79145;SDS011;68792;53.338;-1.502;2023-04-08T07:05:09;3.65;;;1.15;;
79145;SDS011;68792;53.338;-1.502;2023-04-08T07:07:34;3.20;;;0.93;;
79145;SDS011;68792;53.338;-1.502;2023-04-08T07:10:00;5.88;;;0.88;;
79145;SDS011;68792;53.338;-1.502;2023-04-08T07:12:25;1.77;;;0.70;;
79145;SDS011;68792;53.338;-1.502;2023-04-08T07:14:51;1.88;;;0.85;;
79145;SDS011;68792;53.338;-1.502;2023-04-08T07:17:17;3.47;;;0.80;;
79145;SDS011;68792;53.338;-1.502;2023-04-08T07:19:42;2.50;;;0.65;;
79145;SDS011;68792;53.338;-1.502;2023-04-08T07:22:08;3.00;;;0.90;;
79145;SDS011;68792;53.338;-1.502;2023-04-08T07:24:33;3.00;;;1.13;;
79145;SDS011;68792;53.338;-1.502;2023-04-08T07:26:59;1.90;;;0.80;;
79145;SDS011;68792;53.338;-1.502;2023-04-08T07:29:24;6.88;;;1.13;;
79145;SDS011;68792;53.338;-1.502;2023-04-08T07:31:50;1.75;;;0.90;;
79145;SDS011;68792;53.338;-1.502;2023-04-08T07:34:15;1.27;;;0.65;;
79145;SDS011;68792;53.338;-1.502;2023-04-08T07:36:41;5.25;;;0.93;;
79145;SDS011;68792;53.338;-1.502;2023-04-08T07:41:42;3.22;;;0.93;;
79145;SDS011;68792;53.338;-1.502;2023-04-08T07:44:07;1.55;;;0.82;;
79145;SDS011;68792;53.338;-1.502;2023-04-08T07:46:35;4.95;;;1.00;;
79145;SDS011;68792;53.338;-1.502;2023-04-08T07:49:02;3.08;;;1.00;;
79145;SDS011;68792;53.338;-1.502;2023-04-08T07:51:27;1.30;;;0.70;;
79145;SDS011;68792;53.338;-1.502;2023-04-08T07:53:53;1.75;;;0.85;;
79145;SDS011;68792;53.338;-1.502;2023-04-08T07:56:18;6.30;;;1.15;;
79145;SDS011;68792;53.338;-1.502;2023-04-08T07:58:43;4.00;;;1.10;;
79145;SDS011;68792;53.338;-1.502;2023-04-08T08:01:28;1.90;;;0.82;;
79145;SDS011;68792;53.338;-1.502;2023-04-08T08:06:20;1.85;;;1.05;;
79145;SDS011;68792;53.338;-1.502;2023-04-08T08:08:46;2.88;;;1.23;;
79145;SDS011;68792;53.338;-1.502;2023-04-08T08:11:11;3.75;;;1.60;;
79145;SDS011;68792;53.338;-1.502;2023-04-08T08:13:37;1.95;;;1.02;;
79145;SDS011;68792;53.338;-1.502;2023-04-08T08:16:02;2.97;;;1.38;;
79145;SDS011;68792;53.338;-1.502;2023-04-08T08:18:28;2.60;;;1.55;;
79145;SDS011;68792;53.338;-1.502;2023-04-08T08:20:53;2.15;;;1.40;;
79145;SDS011;68792;53.338;-1.502;2023-04-08T08:23:18;4.15;;;1.38;;
79145;SDS011;68792;53.338;-1.502;2023-04-08T08:25:44;4.32;;;1.45;;
79145;SDS011;68792;53.338;-1.502;2023-04-08T08:28:09;2.92;;;1.50;;
79145;SDS011;68792;53.338;-1.502;2023-04-08T08:30:35;3.30;;;2.28;;
79145;SDS011;68792;53.338;-1.502;2023-04-08T08:33:00;2.60;;;1.73;;
79145;SDS011;68792;53.338;-1.502;2023-04-08T08:35:26;3.65;;;1.90;;
79145;SDS011;68792;53.338;-1.502;2023-04-08T08:37:51;2.78;;;1.65;;
79145;SDS011;68792;53.338;-1.502;2023-04-08T08:40:16;3.22;;;1.85;;
79145;SDS011;68792;53.338;-1.502;2023-04-08T08:42:48;2.63;;;1.52;;
79145;SDS011;68792;53.338;-1.502;2023-04-08T08:45:16;3.15;;;1.80;;
79145;SDS011;68792;53.338;-1.502;2023-04-08T08:47:43;6.22;;;1.88;;
79145;SDS011;68792;53.338;-1.502;2023-04-08T08:50:08;2.78;;;1.60;;
79145;SDS011;68792;53.338;-1.502;2023-04-08T08:52:34;2.83;;;1.65;;
79145;SDS011;68792;53.338;-1.502;2023-04-08T08:55:00;4.20;;;1.95;;
79145;SDS011;68792;53.338;-1.502;2023-04-08T08:57:25;3.25;;;1.63;;
79145;SDS011;68792;53.338;-1.502;2023-04-08T08:59:51;3.45;;;1.65;;
79145;SDS011;68792;53.338;-1.502;2023-04-08T09:02:23;3.38;;;1.77;;
79145;SDS011;68792;53.338;-1.502;2023-04-08T09:04:57;4.40;;;1.58;;
79145;SDS011;68792;53.338;-1.502;2023-04-08T09:07:24;3.15;;;1.67;;
79145;SDS011;68792;53.338;-1.502;2023-04-08T09:09:51;3.13;;;1.75;;
79145;SDS011;68792;53.338;-1.502;2023-04-08T09:12:17;4.18;;;1.80;;
79145;SDS011;68792;53.338;-1.502;2023-04-08T09:14:42;4.53;;;2.25;;
79145;SDS011;68792;53.338;-1.502;2023-04-08T09:17:08;5.55;;;2.00;;
79145;SDS011;68792;53.338;-1.502;2023-04-08T09:19:34;4.28;;;1.98;;
79145;SDS011;68792;53.338;-1.502;2023-04-08T09:22:09;3.83;;;2.05;;
79145;SDS011;68792;53.338;-1.502;2023-04-08T09:24:35;3.58;;;2.15;;
79145;SDS011;68792;53.338;-1.502;2023-04-08T09:27:02;4.72;;;2.15;;
79145;SDS011;68792;53.338;-1.502;2023-04-08T09:29:30;6.72;;;2.40;;
79145;SDS011;68792;53.338;-1.502;2023-04-08T09:31:56;4.15;;;2.55;;
79145;SDS011;68792;53.338;-1.502;2023-04-08T09:34:23;4.28;;;2.80;;
79145;SDS011;68792;53.338;-1.502;2023-04-08T09:36:49;4.80;;;2.20;;
79145;SDS011;68792;53.338;-1.502;2023-04-08T09:39:16;3.42;;;2.00;;
79145;SDS011;68792;53.338;-1.502;2023-04-08T09:41:41;6.10;;;2.65;;
79145;SDS011;68792;53.338;-1.502;2023-04-08T09:44:08;5.22;;;2.63;;
79145;SDS011;68792;53.338;-1.502;2023-04-08T09:51:39;5.65;;;2.72;;
79145;SDS011;68792;53.338;-1.502;2023-04-08T09:54:31;4.18;;;2.42;;
79145;SDS011;68792;53.338;-1.502;2023-04-08T09:57:13;4.38;;;2.00;;
79145;SDS011;68792;53.338;-1.502;2023-04-08T09:59:44;6.57;;;2.65;;
79145;SDS011;68792;53.338;-1.502;2023-04-08T10:02:16;4.82;;;2.33;;
79145;SDS011;68792;53.338;-1.502;2023-04-08T10:04:46;5.28;;;2.50;;
79145;SDS011;68792;53.338;-1.502;2023-04-08T10:07:13;4.80;;;2.42;;
79145;SDS011;68792;53.338;-1.502;2023-04-08T10:09:38;4.45;;;2.65;;
79145;SDS011;68792;53.338;-1.502;2023-04-08T10:12:07;2.83;;;2.17;;
79145;SDS011;68792;53.338;-1.502;2023-04-08T10:14:33;5.18;;;2.65;;
79145;SDS011;68792;53.338;-1.502;2023-04-08T10:19:50;6.90;;;2.83;;
79145;SDS011;68792;53.338;-1.502;2023-04-08T10:27:41;4.88;;;2.33;;
79145;SDS011;68792;53.338;-1.502;2023-04-08T10:32:57;4.93;;;2.63;;
79145;SDS011;68792;53.338;-1.502;2023-04-08T10:35:33;5.95;;;2.10;;
79145;SDS011;68792;53.338;-1.502;2023-04-08T10:38:00;3.08;;;2.03;;
79145;SDS011;68792;53.338;-1.502;2023-04-08T10:40:26;4.93;;;2.33;;
79145;SDS011;68792;53.338;-1.502;2023-04-08T10:42:55;4.03;;;2.05;;
79145;SDS011;68792;53.338;-1.502;2023-04-08T10:45:20;4.70;;;2.00;;
79145;SDS011;68792;53.338;-1.502;2023-04-08T10:47:46;5.15;;;2.25;;
79145;SDS011;68792;53.338;-1.502;2023-04-08T10:50:15;3.33;;;2.08;;
79145;SDS011;68792;53.338;-1.502;2023-04-08T10:52:48;4.90;;;2.03;;
79145;SDS011;68792;53.338;-1.502;2023-04-08T10:55:15;2.80;;;1.95;;
79145;SDS011;68792;53.338;-1.502;2023-04-08T10:57:43;4.95;;;2.20;;
79145;SDS011;68792;53.338;-1.502;2023-04-08T11:00:09;3.67;;;1.77;;
79145;SDS011;68792;53.338;-1.502;2023-04-08T11:02:38;3.70;;;2.00;;
79145;SDS011;68792;53.338;-1.502;2023-04-08T11:05:04;3.63;;;2.15;;
79145;SDS011;68792;53.338;-1.502;2023-04-08T11:07:29;3.88;;;1.98;;
79145;SDS011;68792;53.338;-1.502;2023-04-08T11:09:55;3.97;;;1.80;;
79145;SDS011;68792;53.338;-1.502;2023-04-08T11:12:21;4.70;;;2.13;;
79145;SDS011;68792;53.338;-1.502;2023-04-08T11:14:46;2.70;;;1.80;;
79145;SDS011;68792;53.338;-1.502;2023-04-08T11:19:39;3.80;;;1.70;;
79145;SDS011;68792;53.338;-1.502;2023-04-08T11:22:05;2.58;;;1.60;;
79145;SDS011;68792;53.338;-1.502;2023-04-08T11:24:33;4.47;;;1.92;;
79145;SDS011;68792;53.338;-1.502;2023-04-08T11:27:01;4.85;;;1.80;;
79145;SDS011;68792;53.338;-1.502;2023-04-08T11:29:27;3.58;;;1.92;;
79145;SDS011;68792;53.338;-1.502;2023-04-08T11:31:53;3.70;;;1.90;;
79145;SDS011;68792;53.338;-1.502;2023-04-08T11:34:22;4.32;;;2.30;;
79145;SDS011;68792;53.338;-1.502;2023-04-08T11:36:48;2.28;;;1.73;;
79145;SDS011;68792;53.338;-1.502;2023-04-08T11:39:14;3.45;;;1.70;;
79145;SDS011;68792;53.338;-1.502;2023-04-08T11:41:40;3.58;;;2.10;;
79145;SDS011;68792;53.338;-1.502;2023-04-08T11:44:05;3.72;;;1.90;;
79145;SDS011;68792;53.338;-1.502;2023-04-08T11:46:31;2.95;;;1.73;;
79145;SDS011;68792;53.338;-1.502;2023-04-08T11:49:01;3.97;;;2.13;;
79145;SDS011;68792;53.338;-1.502;2023-04-08T11:51:28;2.53;;;1.80;;
79145;SDS011;68792;53.338;-1.502;2023-04-08T11:53:53;3.60;;;1.83;;
79145;SDS011;68792;53.338;-1.502;2023-04-08T11:56:20;3.55;;;1.98;;
79145;SDS011;68792;53.338;-1.502;2023-04-08T11:58:48;2.63;;;1.80;;
79145;SDS011;68792;53.338;-1.502;2023-04-08T12:01:14;2.78;;;1.80;;
79145;SDS011;68792;53.338;-1.502;2023-04-08T12:03:56;3.55;;;1.73;;
79145;SDS011;68792;53.338;-1.502;2023-04-08T12:06:22;3.95;;;1.75;;
79145;SDS011;68792;53.338;-1.502;2023-04-08T12:08:48;2.78;;;1.65;;
79145;SDS011;68792;53.338;-1.502;2023-04-08T12:11:14;3.33;;;2.03;;
79145;SDS011;68792;53.338;-1.502;2023-04-08T12:13:40;3.10;;;1.75;;
79145;SDS011;68792;53.338;-1.502;2023-04-08T12:16:06;2.60;;;1.45;;
79145;SDS011;68792;53.338;-1.502;2023-04-08T12:18:32;3.95;;;1.70;;
79145;SDS011;68792;53.338;-1.502;2023-04-08T12:20:57;4.82;;;1.92;;
79145;SDS011;68792;53.338;-1.502;2023-04-08T12:23:22;2.40;;;1.65;;
79145;SDS011;68792;53.338;-1.502;2023-04-08T12:25:48;3.72;;;1.83;;
79145;SDS011;68792;53.338;-1.502;2023-04-08T12:28:13;3.03;;;1.23;;
79145;SDS011;68792;53.338;-1.502;2023-04-08T12:30:39;2.72;;;1.52;;
79145;SDS011;68792;53.338;-1.502;2023-04-08T12:33:05;3.63;;;1.95;;
79145;SDS011;68792;53.338;-1.502;2023-04-08T12:35:30;3.55;;;1.60;;
79145;SDS011;68792;53.338;-1.502;2023-04-08T12:37:56;3.67;;;1.60;;
79145;SDS011;68792;53.338;-1.502;2023-04-08T12:40:21;4.15;;;1.80;;
79145;SDS011;68792;53.338;-1.502;2023-04-08T12:42:46;2.67;;;1.42;;
79145;SDS011;68792;53.338;-1.502;2023-04-08T12:45:12;2.15;;;1.30;;
79145;SDS011;68792;53.338;-1.502;2023-04-08T12:47:38;2.58;;;1.65;;
79145;SDS011;68792;53.338;-1.502;2023-04-08T12:50:04;3.30;;;1.38;;
79145;SDS011;68792;53.338;-1.502;2023-04-08T12:52:29;7.00;;;1.55;;
79145;SDS011;68792;53.338;-1.502;2023-04-08T12:54:55;4.18;;;1.77;;
79145;SDS011;68792;53.338;-1.502;2023-04-08T12:57:20;3.63;;;2.13;;
79145;SDS011;68792;53.338;-1.502;2023-04-08T12:59:46;2.85;;;1.35;;
79145;SDS011;68792;53.338;-1.502;2023-04-08T13:02:11;2.80;;;1.60;;
79145;SDS011;68792;53.338;-1.502;2023-04-08T13:04:37;2.95;;;1.98;;
79145;SDS011;68792;53.338;-1.502;2023-04-08T13:07:02;2.15;;;1.52;;
79145;SDS011;68792;53.338;-1.502;2023-04-08T13:09:30;3.85;;;1.95;;
79145;SDS011;68792;53.338;-1.502;2023-04-08T13:11:55;3.70;;;2.33;;
79145;SDS011;68792;53.338;-1.502;2023-04-08T13:14:22;2.97;;;1.42;;
79145;SDS011;68792;53.338;-1.502;2023-04-08T13:16:47;2.72;;;1.67;;
79145;SDS011;68792;53.338;-1.502;2023-04-08T13:19:12;2.95;;;1.67;;
79145;SDS011;68792;53.338;-1.502;2023-04-08T13:21:38;5.20;;;1.90;;
79145;SDS011;68792;53.338;-1.502;2023-04-08T13:24:04;5.13;;;2.08;;
79145;SDS011;68792;53.338;-1.502;2023-04-08T13:26:30;5.75;;;1.88;;
79145;SDS011;68792;53.338;-1.502;2023-04-08T13:28:55;3.35;;;1.73;;
79145;SDS011;68792;53.338;-1.502;2023-04-08T13:31:21;3.20;;;1.60;;
79145;SDS011;68792;53.338;-1.502;2023-04-08T13:33:47;2.58;;;1.63;;
79145;SDS011;68792;53.338;-1.502;2023-04-08T13:36:12;3.45;;;1.60;;
79145;SDS011;68792;53.338;-1.502;2023-04-08T13:38:37;3.58;;;1.80;;
79145;SDS011;68792;53.338;-1.502;2023-04-08T13:41:03;2.90;;;1.77;;
79145;SDS011;68792;53.338;-1.502;2023-04-08T13:43:28;5.05;;;1.63;;
79145;SDS011;68792;53.338;-1.502;2023-04-08T13:45:54;4.53;;;1.60;;
79145;SDS011;68792;53.338;-1.502;2023-04-08T13:48:21;2.80;;;1.88;;
79145;SDS011;68792;53.338;-1.502;2023-04-08T13:50:46;2.78;;;1.33;;
79145;SDS011;68792;53.338;-1.502;2023-04-08T13:55:38;2.23;;;1.23;;
79145;SDS011;68792;53.338;-1.502;2023-04-08T13:58:03;3.00;;;1.90;;
79145;SDS011;68792;53.338;-1.502;2023-04-08T14:00:29;2.75;;;1.25;;
79145;SDS011;68792;53.338;-1.502;2023-04-08T14:02:55;3.25;;;1.63;;
79145;SDS011;68792;53.338;-1.502;2023-04-08T14:05:21;4.18;;;1.52;;
79145;SDS011;68792;53.338;-1.502;2023-04-08T14:07:46;4.05;;;1.50;;
79145;SDS011;68792;53.338;-1.502;2023-04-08T14:10:12;2.63;;;1.70;;
79145;SDS011;68792;53.338;-1.502;2023-04-08T14:12:39;4.45;;;1.80;;
79145;SDS011;68792;53.338;-1.502;2023-04-08T14:15:05;3.10;;;1.42;;
79145;SDS011;68792;53.338;-1.502;2023-04-08T14:19:58;3.30;;;1.63;;
79145;SDS011;68792;53.338;-1.502;2023-04-08T14:22:25;2.50;;;1.38;;
79145;SDS011;68792;53.338;-1.502;2023-04-08T14:24:50;4.25;;;1.58;;
79145;SDS011;68792;53.338;-1.502;2023-04-08T14:27:15;2.75;;;1.80;;
79145;SDS011;68792;53.338;-1.502;2023-04-08T14:29:41;3.67;;;1.60;;
79145;SDS011;68792;53.338;-1.502;2023-04-08T14:32:06;3.50;;;1.52;;
79145;SDS011;68792;53.338;-1.502;2023-04-08T14:34:32;3.42;;;1.83;;
79145;SDS011;68792;53.338;-1.502;2023-04-08T14:36:58;2.30;;;1.50;;
79145;SDS011;68792;53.338;-1.502;2023-04-08T14:39:23;3.22;;;1.75;;
79145;SDS011;68792;53.338;-1.502;2023-04-08T14:41:48;3.78;;;1.67;;
79145;SDS011;68792;53.338;-1.502;2023-04-08T14:44:14;2.83;;;1.50;;
79145;SDS011;68792;53.338;-1.502;2023-04-08T14:46:39;3.20;;;1.55;;
79145;SDS011;68792;53.338;-1.502;2023-04-08T14:49:05;4.03;;;1.55;;
79145;SDS011;68792;53.338;-1.502;2023-04-08T14:51:31;3.45;;;1.50;;
79145;SDS011;68792;53.338;-1.502;2023-04-08T14:53:57;2.33;;;1.45;;
79145;SDS011;68792;53.338;-1.502;2023-04-08T14:56:22;2.17;;;1.48;;
79145;SDS011;68792;53.338;-1.502;2023-04-08T14:58:48;2.55;;;1.30;;
79145;SDS011;68792;53.338;-1.502;2023-04-08T15:01:13;3.50;;;1.58;;
79145;SDS011;68792;53.338;-1.502;2023-04-08T15:03:38;3.20;;;1.83;;
79145;SDS011;68792;53.338;-1.502;2023-04-08T15:06:04;3.20;;;1.40;;
79145;SDS011;68792;53.338;-1.502;2023-04-08T15:08:30;2.90;;;1.48;;